sensor_id;sensor_type;location;lat;lon;timestamp;P1;durP1;ratioP1;P2;durP2;ratioP2
1404;SDS011;697;51.114;6.542;2023-01-20T00:00:26;21.73;;;13.67;;
1404;SDS011;697;51.114;6.542;2023-01-20T00:02:53;19.00;;;11.90;;
1404;SDS011;697;51.114;6.542;2023-01-20T00:05:20;19.83;;;14.47;;
1404;SDS011;697;51.114;6.542;2023-01-20T00:07:46;19.93;;;13.57;;
1404;SDS011;697;51.114;6.542;2023-01-20T00:10:15;19.93;;;13.73;;
1404;SDS011;697;51.114;6.542;2023-01-20T00:12:42;19.60;;;13.37;;
1404;SDS011;697;51.114;6.542;2023-01-20T00:15:09;20.47;;;13.50;;
1404;SDS011;697;51.114;6.542;2023-01-20T00:17:36;22.67;;;14.03;;
1404;SDS011;697;51.114;6.542;2023-01-20T00:20:03;19.30;;;14.03;;
1404;SDS011;697;51.114;6.542;2023-01-20T00:22:30;19.20;;;13.53;;
1404;SDS011;697;51.114;6.542;2023-01-20T00:24:58;24.20;;;13.80;;
1404;SDS011;697;51.114;6.542;2023-01-20T00:27:26;22.10;;;14.10;;
1404;SDS011;697;51.114;6.542;2023-01-20T00:29:53;19.30;;;12.60;;
1404;SDS011;697;51.114;6.542;2023-01-20T00:32:19;20.57;;;14.63;;
1404;SDS011;697;51.114;6.542;2023-01-20T00:34:46;26.50;;;14.70;;
1404;SDS011;697;51.114;6.542;2023-01-20T00:37:13;25.03;;;14.60;;
1404;SDS011;697;51.114;6.542;2023-01-20T00:39:39;24.30;;;15.07;;
1404;SDS011;697;51.114;6.542;2023-01-20T00:42:06;21.50;;;14.00;;
1404;SDS011;697;51.114;6.542;2023-01-20T00:44:34;24.33;;;13.53;;
1404;SDS011;697;51.114;6.542;2023-01-20T00:47:01;22.30;;;14.43;;
1404;SDS011;697;51.114;6.542;2023-01-20T00:49:27;24.33;;;14.17;;
1404;SDS011;697;51.114;6.542;2023-01-20T00:51:54;22.70;;;14.00;;
1404;SDS011;697;51.114;6.542;2023-01-20T00:54:21;27.57;;;14.37;;
1404;SDS011;697;51.114;6.542;2023-01-20T00:56:47;26.80;;;15.10;;
1404;SDS011;697;51.114;6.542;2023-01-20T00:59:14;24.10;;;14.23;;
1404;SDS011;697;51.114;6.542;2023-01-20T01:01:42;22.73;;;15.33;;
1404;SDS011;697;51.114;6.542;2023-01-20T01:04:10;23.73;;;15.30;;
1404;SDS011;697;51.114;6.542;2023-01-20T01:06:36;27.10;;;15.30;;
1404;SDS011;697;51.114;6.542;2023-01-20T01:09:03;24.60;;;16.70;;
1404;SDS011;697;51.114;6.542;2023-01-20T01:11:30;29.10;;;18.37;;
1404;SDS011;697;51.114;6.542;2023-01-20T01:13:57;30.93;;;18.43;;
1404;SDS011;697;51.114;6.542;2023-01-20T01:16:24;32.40;;;19.00;;
1404;SDS011;697;51.114;6.542;2023-01-20T01:18:53;31.60;;;18.97;;
1404;SDS011;697;51.114;6.542;2023-01-20T01:21:20;25.80;;;16.73;;
1404;SDS011;697;51.114;6.542;2023-01-20T01:23:47;31.97;;;18.73;;
1404;SDS011;697;51.114;6.542;2023-01-20T01:26:15;29.70;;;17.80;;
1404;SDS011;697;51.114;6.542;2023-01-20T01:28:42;28.10;;;17.10;;
1404;SDS011;697;51.114;6.542;2023-01-20T01:31:12;32.40;;;17.83;;
1404;SDS011;697;51.114;6.542;2023-01-20T01:33:39;25.57;;;16.73;;
1404;SDS011;697;51.114;6.542;2023-01-20T01:36:08;33.13;;;19.00;;
1404;SDS011;697;51.114;6.542;2023-01-20T01:38:38;28.43;;;16.80;;
1404;SDS011;697;51.114;6.542;2023-01-20T01:41:05;25.83;;;15.97;;
1404;SDS011;697;51.114;6.542;2023-01-20T01:43:33;30.67;;;19.07;;
1404;SDS011;697;51.114;6.542;2023-01-20T01:46:01;28.87;;;17.00;;
1404;SDS011;697;51.114;6.542;2023-01-20T01:48:29;25.90;;;17.20;;
1404;SDS011;697;51.114;6.542;2023-01-20T01:51:01;29.10;;;17.83;;
1404;SDS011;697;51.114;6.542;2023-01-20T01:53:34;25.07;;;16.03;;
1404;SDS011;697;51.114;6.542;2023-01-20T01:56:04;29.13;;;18.00;;
1404;SDS011;697;51.114;6.542;2023-01-20T01:58:32;35.20;;;19.80;;
1404;SDS011;697;51.114;6.542;2023-01-20T02:01:03;32.10;;;17.77;;
1404;SDS011;697;51.114;6.542;2023-01-20T02:03:30;30.07;;;19.60;;
1404;SDS011;697;51.114;6.542;2023-01-20T02:06:03;31.50;;;19.17;;
1404;SDS011;697;51.114;6.542;2023-01-20T02:08:32;28.60;;;19.17;;
1404;SDS011;697;51.114;6.542;2023-01-20T02:10:59;36.73;;;20.53;;
1404;SDS011;697;51.114;6.542;2023-01-20T02:13:26;34.23;;;20.97;;
1404;SDS011;697;51.114;6.542;2023-01-20T02:15:54;37.53;;;22.57;;
1404;SDS011;697;51.114;6.542;2023-01-20T02:18:31;36.33;;;21.20;;
1404;SDS011;697;51.114;6.542;2023-01-20T02:27:18;43.00;;;23.43;;
1404;SDS011;697;51.114;6.542;2023-01-20T02:32:47;39.60;;;22.13;;
1404;SDS011;697;51.114;6.542;2023-01-20T02:35:20;38.00;;;22.30;;
1404;SDS011;697;51.114;6.542;2023-01-20T02:37:52;39.00;;;21.13;;
1404;SDS011;697;51.114;6.542;2023-01-20T02:40:25;36.77;;;21.50;;
1404;SDS011;697;51.114;6.542;2023-01-20T02:42:58;41.50;;;21.33;;
1404;SDS011;697;51.114;6.542;2023-01-20T02:45:31;38.27;;;20.60;;
1404;SDS011;697;51.114;6.542;2023-01-20T02:48:05;39.53;;;21.03;;
1404;SDS011;697;51.114;6.542;2023-01-20T02:50:39;33.13;;;19.83;;
1404;SDS011;697;51.114;6.542;2023-01-20T02:53:10;33.10;;;19.40;;
1404;SDS011;697;51.114;6.542;2023-01-20T02:55:39;35.20;;;19.80;;
1404;SDS011;697;51.114;6.542;2023-01-20T02:58:10;33.13;;;19.33;;
1404;SDS011;697;51.114;6.542;2023-01-20T03:00:40;30.63;;;18.93;;
1404;SDS011;697;51.114;6.542;2023-01-20T03:03:15;35.67;;;19.27;;
1404;SDS011;697;51.114;6.542;2023-01-20T03:05:46;35.23;;;18.57;;
1404;SDS011;697;51.114;6.542;2023-01-20T03:08:17;31.97;;;18.23;;
1404;SDS011;697;51.114;6.542;2023-01-20T03:10:46;35.50;;;19.77;;
1404;SDS011;697;51.114;6.542;2023-01-20T03:13:15;25.70;;;17.10;;
1404;SDS011;697;51.114;6.542;2023-01-20T03:15:48;26.90;;;17.30;;
1404;SDS011;697;51.114;6.542;2023-01-20T03:18:22;30.07;;;17.70;;
1404;SDS011;697;51.114;6.542;2023-01-20T03:20:49;30.00;;;16.97;;
1404;SDS011;697;51.114;6.542;2023-01-20T03:23:17;27.53;;;16.87;;
1404;SDS011;697;51.114;6.542;2023-01-20T03:25:43;36.20;;;16.10;;
1404;SDS011;697;51.114;6.542;2023-01-20T03:28:12;29.73;;;18.40;;
1404;SDS011;697;51.114;6.542;2023-01-20T03:30:39;31.40;;;17.27;;
1404;SDS011;697;51.114;6.542;2023-01-20T03:33:06;28.03;;;16.43;;
1404;SDS011;697;51.114;6.542;2023-01-20T03:35:35;27.73;;;17.30;;
1404;SDS011;697;51.114;6.542;2023-01-20T03:38:02;30.90;;;16.70;;
1404;SDS011;697;51.114;6.542;2023-01-20T03:40:30;31.37;;;17.27;;
1404;SDS011;697;51.114;6.542;2023-01-20T03:43:05;26.90;;;16.50;;
1404;SDS011;697;51.114;6.542;2023-01-20T03:45:38;28.80;;;16.93;;
1404;SDS011;697;51.114;6.542;2023-01-20T03:48:12;29.80;;;15.67;;
1404;SDS011;697;51.114;6.542;2023-01-20T03:50:44;26.33;;;16.43;;
1404;SDS011;697;51.114;6.542;2023-01-20T03:53:21;26.43;;;17.10;;
1404;SDS011;697;51.114;6.542;2023-01-20T03:55:55;26.50;;;15.87;;
1404;SDS011;697;51.114;6.542;2023-01-20T03:58:27;24.87;;;16.70;;
1404;SDS011;697;51.114;6.542;2023-01-20T04:00:57;28.20;;;16.10;;
1404;SDS011;697;51.114;6.542;2023-01-20T04:03:27;26.23;;;16.70;;
1404;SDS011;697;51.114;6.542;2023-01-20T04:05:58;23.93;;;16.40;;
1404;SDS011;697;51.114;6.542;2023-01-20T04:08:28;28.70;;;16.57;;
1404;SDS011;697;51.114;6.542;2023-01-20T04:10:58;31.67;;;16.90;;
1404;SDS011;697;51.114;6.542;2023-01-20T04:13:28;31.70;;;17.80;;
1404;SDS011;697;51.114;6.542;2023-01-20T04:15:55;26.37;;;16.33;;
1404;SDS011;697;51.114;6.542;2023-01-20T04:18:23;25.73;;;15.93;;
1404;SDS011;697;51.114;6.542;2023-01-20T04:20:51;28.17;;;17.60;;
1404;SDS011;697;51.114;6.542;2023-01-20T04:23:26;27.40;;;16.70;;
1404;SDS011;697;51.114;6.542;2023-01-20T04:25:56;29.20;;;18.00;;
1404;SDS011;697;51.114;6.542;2023-01-20T04:28:23;25.17;;;14.93;;
1404;SDS011;697;51.114;6.542;2023-01-20T04:30:50;27.20;;;16.97;;
1404;SDS011;697;51.114;6.542;2023-01-20T04:33:17;27.33;;;16.60;;
1404;SDS011;697;51.114;6.542;2023-01-20T04:35:44;28.90;;;16.87;;
1404;SDS011;697;51.114;6.542;2023-01-20T04:38:11;28.07;;;16.60;;
1404;SDS011;697;51.114;6.542;2023-01-20T04:40:39;26.07;;;17.10;;
1404;SDS011;697;51.114;6.542;2023-01-20T04:43:06;28.80;;;18.20;;
1404;SDS011;697;51.114;6.542;2023-01-20T04:45:34;29.00;;;18.23;;
1404;SDS011;697;51.114;6.542;2023-01-20T04:48:04;27.77;;;17.00;;
1404;SDS011;697;51.114;6.542;2023-01-20T04:50:31;30.67;;;15.83;;
1404;SDS011;697;51.114;6.542;2023-01-20T04:52:58;29.27;;;16.00;;
1404;SDS011;697;51.114;6.542;2023-01-20T04:55:25;25.57;;;16.40;;
1404;SDS011;697;51.114;6.542;2023-01-20T04:57:53;25.50;;;15.30;;
1404;SDS011;697;51.114;6.542;2023-01-20T05:00:20;21.27;;;14.93;;
1404;SDS011;697;51.114;6.542;2023-01-20T05:02:46;24.43;;;15.60;;
1404;SDS011;697;51.114;6.542;2023-01-20T05:05:13;28.33;;;15.27;;
1404;SDS011;697;51.114;6.542;2023-01-20T05:07:40;25.40;;;15.97;;
1404;SDS011;697;51.114;6.542;2023-01-20T05:10:08;23.40;;;14.37;;
1404;SDS011;697;51.114;6.542;2023-01-20T05:12:35;23.40;;;14.80;;
1404;SDS011;697;51.114;6.542;2023-01-20T05:15:03;23.57;;;15.87;;
1404;SDS011;697;51.114;6.542;2023-01-20T05:17:31;26.17;;;13.80;;
1404;SDS011;697;51.114;6.542;2023-01-20T05:19:58;25.03;;;15.50;;
1404;SDS011;697;51.114;6.542;2023-01-20T05:22:24;26.13;;;15.73;;
1404;SDS011;697;51.114;6.542;2023-01-20T05:24:52;22.53;;;15.00;;
1404;SDS011;697;51.114;6.542;2023-01-20T05:27:18;25.03;;;15.70;;
1404;SDS011;697;51.114;6.542;2023-01-20T05:29:45;29.37;;;14.50;;
1404;SDS011;697;51.114;6.542;2023-01-20T05:32:13;24.17;;;15.40;;
1404;SDS011;697;51.114;6.542;2023-01-20T05:34:40;25.70;;;15.70;;
1404;SDS011;697;51.114;6.542;2023-01-20T05:37:07;23.53;;;14.87;;
1404;SDS011;697;51.114;6.542;2023-01-20T05:39:33;23.50;;;14.57;;
1404;SDS011;697;51.114;6.542;2023-01-20T05:42:00;27.00;;;15.40;;
1404;SDS011;697;51.114;6.542;2023-01-20T05:44:27;29.77;;;18.13;;
1404;SDS011;697;51.114;6.542;2023-01-20T05:46:54;24.03;;;15.40;;
1404;SDS011;697;51.114;6.542;2023-01-20T05:49:22;27.00;;;16.07;;
1404;SDS011;697;51.114;6.542;2023-01-20T05:51:49;24.27;;;16.00;;
1404;SDS011;697;51.114;6.542;2023-01-20T05:54:15;24.63;;;16.60;;
1404;SDS011;697;51.114;6.542;2023-01-20T05:56:42;25.83;;;16.37;;
1404;SDS011;697;51.114;6.542;2023-01-20T05:59:09;24.83;;;15.73;;
1404;SDS011;697;51.114;6.542;2023-01-20T06:01:36;23.70;;;17.03;;
1404;SDS011;697;51.114;6.542;2023-01-20T06:04:03;25.63;;;17.33;;
1404;SDS011;697;51.114;6.542;2023-01-20T06:06:31;31.27;;;18.13;;
1404;SDS011;697;51.114;6.542;2023-01-20T06:08:58;24.20;;;15.73;;
1404;SDS011;697;51.114;6.542;2023-01-20T06:11:24;25.73;;;16.20;;
1404;SDS011;697;51.114;6.542;2023-01-20T06:13:51;26.60;;;17.90;;
1404;SDS011;697;51.114;6.542;2023-01-20T06:16:18;27.13;;;18.57;;
1404;SDS011;697;51.114;6.542;2023-01-20T06:18:45;31.40;;;19.07;;
1404;SDS011;697;51.114;6.542;2023-01-20T06:21:12;27.63;;;17.93;;
1404;SDS011;697;51.114;6.542;2023-01-20T06:23:40;28.47;;;18.03;;
1404;SDS011;697;51.114;6.542;2023-01-20T06:26:09;27.57;;;17.83;;
1404;SDS011;697;51.114;6.542;2023-01-20T06:28:37;25.97;;;17.37;;
1404;SDS011;697;51.114;6.542;2023-01-20T06:31:04;29.90;;;17.47;;
1404;SDS011;697;51.114;6.542;2023-01-20T06:33:32;26.57;;;17.43;;
1404;SDS011;697;51.114;6.542;2023-01-20T06:36:00;25.07;;;17.80;;
1404;SDS011;697;51.114;6.542;2023-01-20T06:38:28;27.60;;;18.27;;
1404;SDS011;697;51.114;6.542;2023-01-20T06:40:57;27.53;;;18.43;;
1404;SDS011;697;51.114;6.542;2023-01-20T06:43:26;27.83;;;16.73;;
1404;SDS011;697;51.114;6.542;2023-01-20T06:45:57;32.03;;;18.80;;
1404;SDS011;697;51.114;6.542;2023-01-20T06:48:24;37.17;;;18.87;;
1404;SDS011;697;51.114;6.542;2023-01-20T06:50:51;28.30;;;18.23;;
1404;SDS011;697;51.114;6.542;2023-01-20T06:53:17;24.80;;;17.73;;
1404;SDS011;697;51.114;6.542;2023-01-20T06:55:52;30.17;;;18.07;;
1404;SDS011;697;51.114;6.542;2023-01-20T06:58:21;25.20;;;16.80;;
1404;SDS011;697;51.114;6.542;2023-01-20T07:00:49;27.47;;;17.37;;
1404;SDS011;697;51.114;6.542;2023-01-20T07:03:16;22.53;;;16.13;;
1404;SDS011;697;51.114;6.542;2023-01-20T07:05:42;32.00;;;18.07;;
1404;SDS011;697;51.114;6.542;2023-01-20T07:08:10;26.33;;;17.60;;
1404;SDS011;697;51.114;6.542;2023-01-20T07:10:36;33.30;;;19.27;;
1404;SDS011;697;51.114;6.542;2023-01-20T07:13:03;33.83;;;19.27;;
1404;SDS011;697;51.114;6.542;2023-01-20T07:15:31;29.13;;;18.13;;
1404;SDS011;697;51.114;6.542;2023-01-20T07:17:58;28.03;;;17.53;;
1404;SDS011;697;51.114;6.542;2023-01-20T07:20:25;30.27;;;18.83;;
1404;SDS011;697;51.114;6.542;2023-01-20T07:22:52;33.47;;;17.47;;
1404;SDS011;697;51.114;6.542;2023-01-20T07:25:19;28.80;;;18.63;;
1404;SDS011;697;51.114;6.542;2023-01-20T07:27:45;32.83;;;19.00;;
1404;SDS011;697;51.114;6.542;2023-01-20T07:30:13;25.03;;;17.07;;
1404;SDS011;697;51.114;6.542;2023-01-20T07:32:42;26.50;;;17.90;;
1404;SDS011;697;51.114;6.542;2023-01-20T07:35:08;29.43;;;18.10;;
1404;SDS011;697;51.114;6.542;2023-01-20T07:37:35;33.20;;;17.47;;
1404;SDS011;697;51.114;6.542;2023-01-20T07:40:02;27.60;;;17.77;;
1404;SDS011;697;51.114;6.542;2023-01-20T07:42:29;27.03;;;17.83;;
1404;SDS011;697;51.114;6.542;2023-01-20T07:44:56;29.03;;;18.23;;
1404;SDS011;697;51.114;6.542;2023-01-20T07:47:22;29.83;;;18.37;;
1404;SDS011;697;51.114;6.542;2023-01-20T07:49:51;27.07;;;17.13;;
1404;SDS011;697;51.114;6.542;2023-01-20T07:52:19;28.70;;;18.60;;
1404;SDS011;697;51.114;6.542;2023-01-20T07:54:46;23.63;;;15.60;;
1404;SDS011;697;51.114;6.542;2023-01-20T07:57:13;25.53;;;16.73;;
1404;SDS011;697;51.114;6.542;2023-01-20T07:59:39;25.63;;;17.10;;
1404;SDS011;697;51.114;6.542;2023-01-20T08:02:07;27.13;;;16.80;;
1404;SDS011;697;51.114;6.542;2023-01-20T08:04:34;24.90;;;17.60;;
1404;SDS011;697;51.114;6.542;2023-01-20T08:07:02;30.10;;;18.20;;
1404;SDS011;697;51.114;6.542;2023-01-20T08:09:29;23.37;;;16.80;;
1404;SDS011;697;51.114;6.542;2023-01-20T08:11:56;28.90;;;18.43;;
1404;SDS011;697;51.114;6.542;2023-01-20T08:14:23;30.43;;;18.63;;
1404;SDS011;697;51.114;6.542;2023-01-20T08:16:49;26.57;;;18.27;;
1404;SDS011;697;51.114;6.542;2023-01-20T08:19:16;23.77;;;18.57;;
1404;SDS011;697;51.114;6.542;2023-01-20T08:21:43;23.73;;;16.47;;
1404;SDS011;697;51.114;6.542;2023-01-20T08:24:11;26.20;;;16.80;;
1404;SDS011;697;51.114;6.542;2023-01-20T08:26:38;33.43;;;18.27;;
1404;SDS011;697;51.114;6.542;2023-01-20T08:29:05;27.63;;;17.07;;
1404;SDS011;697;51.114;6.542;2023-01-20T08:31:33;22.80;;;15.73;;
1404;SDS011;697;51.114;6.542;2023-01-20T08:34:01;26.50;;;17.13;;
1404;SDS011;697;51.114;6.542;2023-01-20T08:36:28;24.20;;;16.93;;
1404;SDS011;697;51.114;6.542;2023-01-20T08:38:57;31.37;;;17.70;;
1404;SDS011;697;51.114;6.542;2023-01-20T08:41:28;24.40;;;16.60;;
1404;SDS011;697;51.114;6.542;2023-01-20T08:43:56;25.70;;;16.83;;
1404;SDS011;697;51.114;6.542;2023-01-20T08:46:24;30.17;;;16.07;;
1404;SDS011;697;51.114;6.542;2023-01-20T08:48:51;25.13;;;16.60;;
1404;SDS011;697;51.114;6.542;2023-01-20T08:51:19;22.60;;;16.00;;
1404;SDS011;697;51.114;6.542;2023-01-20T08:53:47;24.03;;;14.93;;
1404;SDS011;697;51.114;6.542;2023-01-20T08:56:15;20.67;;;15.70;;
1404;SDS011;697;51.114;6.542;2023-01-20T08:58:46;22.13;;;15.60;;
1404;SDS011;697;51.114;6.542;2023-01-20T09:01:13;23.90;;;16.10;;
1404;SDS011;697;51.114;6.542;2023-01-20T09:03:41;23.43;;;17.50;;
1404;SDS011;697;51.114;6.542;2023-01-20T09:06:08;20.77;;;14.67;;
1404;SDS011;697;51.114;6.542;2023-01-20T09:08:36;24.60;;;16.73;;
1404;SDS011;697;51.114;6.542;2023-01-20T09:11:04;20.20;;;15.30;;
1404;SDS011;697;51.114;6.542;2023-01-20T09:13:32;21.47;;;14.70;;
1404;SDS011;697;51.114;6.542;2023-01-20T09:16:01;22.67;;;14.47;;
1404;SDS011;697;51.114;6.542;2023-01-20T09:18:28;25.47;;;15.60;;
1404;SDS011;697;51.114;6.542;2023-01-20T09:20:56;20.30;;;13.83;;
1404;SDS011;697;51.114;6.542;2023-01-20T09:23:23;23.50;;;16.00;;
1404;SDS011;697;51.114;6.542;2023-01-20T09:25:49;18.27;;;12.30;;
1404;SDS011;697;51.114;6.542;2023-01-20T09:28:16;19.10;;;13.80;;
1404;SDS011;697;51.114;6.542;2023-01-20T09:30:43;22.73;;;13.47;;
1404;SDS011;697;51.114;6.542;2023-01-20T09:33:11;21.87;;;12.43;;
1404;SDS011;697;51.114;6.542;2023-01-20T09:35:38;20.30;;;12.27;;
1404;SDS011;697;51.114;6.542;2023-01-20T09:38:05;17.23;;;12.20;;
1404;SDS011;697;51.114;6.542;2023-01-20T09:40:52;17.60;;;12.13;;
1404;SDS011;697;51.114;6.542;2023-01-20T09:43:42;18.87;;;11.13;;
1404;SDS011;697;51.114;6.542;2023-01-20T09:46:23;13.90;;;10.80;;
1404;SDS011;697;51.114;6.542;2023-01-20T09:49:03;18.83;;;11.90;;
1404;SDS011;697;51.114;6.542;2023-01-20T09:51:59;21.00;;;11.47;;
1404;SDS011;697;51.114;6.542;2023-01-20T09:54:50;15.53;;;11.20;;
1404;SDS011;697;51.114;6.542;2023-01-20T09:57:21;22.40;;;13.07;;
1404;SDS011;697;51.114;6.542;2023-01-20T09:59:54;14.90;;;11.70;;
1404;SDS011;697;51.114;6.542;2023-01-20T10:02:28;17.40;;;11.77;;
1404;SDS011;697;51.114;6.542;2023-01-20T10:05:02;18.87;;;12.93;;
1404;SDS011;697;51.114;6.542;2023-01-20T10:07:37;19.53;;;12.53;;
1404;SDS011;697;51.114;6.542;2023-01-20T10:10:10;19.57;;;12.00;;
1404;SDS011;697;51.114;6.542;2023-01-20T10:12:44;21.60;;;13.00;;
1404;SDS011;697;51.114;6.542;2023-01-20T10:15:15;20.03;;;11.93;;
1404;SDS011;697;51.114;6.542;2023-01-20T10:17:47;15.20;;;10.57;;
1404;SDS011;697;51.114;6.542;2023-01-20T10:20:21;17.60;;;11.70;;
1404;SDS011;697;51.114;6.542;2023-01-20T10:22:57;17.87;;;13.23;;
1404;SDS011;697;51.114;6.542;2023-01-20T10:25:29;18.80;;;12.67;;
1404;SDS011;697;51.114;6.542;2023-01-20T10:28:02;21.57;;;13.20;;
1404;SDS011;697;51.114;6.542;2023-01-20T10:30:34;14.97;;;11.50;;
1404;SDS011;697;51.114;6.542;2023-01-20T10:33:04;13.63;;;9.70;;
1404;SDS011;697;51.114;6.542;2023-01-20T10:35:36;15.47;;;11.40;;
1404;SDS011;697;51.114;6.542;2023-01-20T10:38:05;13.90;;;10.87;;
1404;SDS011;697;51.114;6.542;2023-01-20T10:40:43;16.73;;;11.40;;
1404;SDS011;697;51.114;6.542;2023-01-20T10:43:16;16.63;;;11.10;;
1404;SDS011;697;51.114;6.542;2023-01-20T10:45:56;16.33;;;11.83;;
1404;SDS011;697;51.114;6.542;2023-01-20T10:48:38;18.93;;;10.20;;
1404;SDS011;697;51.114;6.542;2023-01-20T10:51:17;16.37;;;11.10;;
1404;SDS011;697;51.114;6.542;2023-01-20T10:53:52;14.93;;;9.83;;
1404;SDS011;697;51.114;6.542;2023-01-20T10:56:40;15.73;;;10.43;;
1404;SDS011;697;51.114;6.542;2023-01-20T10:59:11;17.33;;;10.90;;
1404;SDS011;697;51.114;6.542;2023-01-20T11:01:42;20.27;;;11.90;;
1404;SDS011;697;51.114;6.542;2023-01-20T11:04:14;17.93;;;11.03;;
1404;SDS011;697;51.114;6.542;2023-01-20T11:06:45;16.30;;;10.80;;
1404;SDS011;697;51.114;6.542;2023-01-20T11:09:18;20.03;;;12.77;;
1404;SDS011;697;51.114;6.542;2023-01-20T11:11:48;22.30;;;12.50;;
1404;SDS011;697;51.114;6.542;2023-01-20T11:14:15;18.03;;;10.90;;
1404;SDS011;697;51.114;6.542;2023-01-20T11:16:42;17.13;;;10.00;;
1404;SDS011;697;51.114;6.542;2023-01-20T11:19:12;19.00;;;11.77;;
1404;SDS011;697;51.114;6.542;2023-01-20T11:21:39;20.93;;;11.80;;
1404;SDS011;697;51.114;6.542;2023-01-20T11:27:00;17.50;;;10.73;;
1404;SDS011;697;51.114;6.542;2023-01-20T11:29:29;9.90;;;8.67;;
1404;SDS011;697;51.114;6.542;2023-01-20T11:31:58;17.10;;;10.33;;
1404;SDS011;697;51.114;6.542;2023-01-20T11:34:26;15.13;;;10.77;;
1404;SDS011;697;51.114;6.542;2023-01-20T11:37:14;15.30;;;10.63;;
1404;SDS011;697;51.114;6.542;2023-01-20T11:39:55;18.73;;;10.23;;
1404;SDS011;697;51.114;6.542;2023-01-20T11:42:25;17.07;;;10.77;;
1404;SDS011;697;51.114;6.542;2023-01-20T11:44:55;19.00;;;11.27;;
1404;SDS011;697;51.114;6.542;2023-01-20T11:47:23;19.23;;;11.43;;
1404;SDS011;697;51.114;6.542;2023-01-20T11:50:17;18.17;;;11.63;;
1404;SDS011;697;51.114;6.542;2023-01-20T11:52:49;17.93;;;10.60;;
1404;SDS011;697;51.114;6.542;2023-01-20T11:55:18;17.87;;;11.20;;
1404;SDS011;697;51.114;6.542;2023-01-20T11:57:47;17.10;;;10.00;;
1404;SDS011;697;51.114;6.542;2023-01-20T12:06:08;14.17;;;9.77;;
1404;SDS011;697;51.114;6.542;2023-01-20T12:08:43;14.70;;;8.40;;
1404;SDS011;697;51.114;6.542;2023-01-20T12:11:17;14.53;;;9.53;;
1404;SDS011;697;51.114;6.542;2023-01-20T12:13:59;13.40;;;7.47;;
1404;SDS011;697;51.114;6.542;2023-01-20T12:17:02;10.20;;;8.30;;
1404;SDS011;697;51.114;6.542;2023-01-20T12:19:40;13.50;;;10.27;;
1404;SDS011;697;51.114;6.542;2023-01-20T12:22:20;14.83;;;9.90;;
1404;SDS011;697;51.114;6.542;2023-01-20T12:24:52;14.13;;;9.17;;
1404;SDS011;697;51.114;6.542;2023-01-20T12:27:34;11.97;;;7.20;;
1404;SDS011;697;51.114;6.542;2023-01-20T12:30:09;6.93;;;5.33;;
1404;SDS011;697;51.114;6.542;2023-01-20T12:32:59;6.57;;;4.20;;
1404;SDS011;697;51.114;6.542;2023-01-20T12:35:26;9.70;;;4.47;;
1404;SDS011;697;51.114;6.542;2023-01-20T12:37:58;5.97;;;4.50;;
1404;SDS011;697;51.114;6.542;2023-01-20T12:40:34;4.60;;;4.00;;
1404;SDS011;697;51.114;6.542;2023-01-20T12:43:11;9.17;;;5.20;;
1404;SDS011;697;51.114;6.542;2023-01-20T12:46:00;6.87;;;4.33;;
1404;SDS011;697;51.114;6.542;2023-01-20T12:48:39;5.53;;;4.93;;
1404;SDS011;697;51.114;6.542;2023-01-20T12:51:18;5.33;;;4.10;;
1404;SDS011;697;51.114;6.542;2023-01-20T12:54:02;5.00;;;4.40;;
1404;SDS011;697;51.114;6.542;2023-01-20T12:57:01;6.47;;;4.00;;
1404;SDS011;697;51.114;6.542;2023-01-20T12:59:43;10.90;;;4.30;;
1404;SDS011;697;51.114;6.542;2023-01-20T13:02:34;5.80;;;4.30;;
1404;SDS011;697;51.114;6.542;2023-01-20T13:05:41;4.30;;;3.63;;
1404;SDS011;697;51.114;6.542;2023-01-20T13:08:27;4.00;;;3.60;;
1404;SDS011;697;51.114;6.542;2023-01-20T13:11:04;5.23;;;4.53;;
1404;SDS011;697;51.114;6.542;2023-01-20T13:13:43;6.20;;;4.87;;
1404;SDS011;697;51.114;6.542;2023-01-20T13:16:22;6.53;;;5.40;;
1404;SDS011;697;51.114;6.542;2023-01-20T13:18:59;6.23;;;4.83;;
1404;SDS011;697;51.114;6.542;2023-01-20T13:21:29;5.27;;;4.63;;
1404;SDS011;697;51.114;6.542;2023-01-20T13:23:57;5.57;;;4.53;;
1404;SDS011;697;51.114;6.542;2023-01-20T13:26:26;7.00;;;5.10;;
1404;SDS011;697;51.114;6.542;2023-01-20T13:28:54;5.90;;;4.67;;
1404;SDS011;697;51.114;6.542;2023-01-20T13:31:29;5.80;;;4.33;;
1404;SDS011;697;51.114;6.542;2023-01-20T13:37:24;5.93;;;4.40;;
1404;SDS011;697;51.114;6.542;2023-01-20T13:39:53;8.17;;;4.77;;
1404;SDS011;697;51.114;6.542;2023-01-20T13:42:27;6.03;;;4.90;;
1404;SDS011;697;51.114;6.542;2023-01-20T13:45:14;6.07;;;5.30;;
1404;SDS011;697;51.114;6.542;2023-01-20T13:48:20;8.60;;;5.60;;
1404;SDS011;697;51.114;6.542;2023-01-20T13:50:47;6.40;;;5.20;;
1404;SDS011;697;51.114;6.542;2023-01-20T13:53:26;6.33;;;5.10;;
1404;SDS011;697;51.114;6.542;2023-01-20T13:55:54;7.77;;;5.20;;
1404;SDS011;697;51.114;6.542;2023-01-20T13:58:23;9.97;;;6.80;;
1404;SDS011;697;51.114;6.542;2023-01-20T14:00:51;10.53;;;6.97;;
1404;SDS011;697;51.114;6.542;2023-01-20T14:03:21;6.40;;;5.67;;
1404;SDS011;697;51.114;6.542;2023-01-20T14:05:52;8.50;;;6.33;;
1404;SDS011;697;51.114;6.542;2023-01-20T14:08:20;13.43;;;7.40;;
1404;SDS011;697;51.114;6.542;2023-01-20T14:10:48;8.33;;;5.90;;
1404;SDS011;697;51.114;6.542;2023-01-20T14:13:21;6.43;;;5.70;;
1404;SDS011;697;51.114;6.542;2023-01-20T14:15:50;7.70;;;6.43;;
1404;SDS011;697;51.114;6.542;2023-01-20T14:18:18;9.07;;;6.27;;
1404;SDS011;697;51.114;6.542;2023-01-20T14:20:58;7.07;;;6.37;;
1404;SDS011;697;51.114;6.542;2023-01-20T14:23:28;9.17;;;5.60;;
1404;SDS011;697;51.114;6.542;2023-01-20T14:26:01;8.87;;;6.80;;
1404;SDS011;697;51.114;6.542;2023-01-20T14:28:30;10.97;;;7.27;;
1404;SDS011;697;51.114;6.542;2023-01-20T14:33:56;7.40;;;6.23;;
1404;SDS011;697;51.114;6.542;2023-01-20T14:36:28;9.37;;;6.63;;
1404;SDS011;697;51.114;6.542;2023-01-20T14:38:57;10.13;;;6.90;;
1404;SDS011;697;51.114;6.542;2023-01-20T14:41:30;9.70;;;7.23;;
1404;SDS011;697;51.114;6.542;2023-01-20T14:43:59;8.53;;;6.93;;
1404;SDS011;697;51.114;6.542;2023-01-20T14:46:27;6.53;;;5.80;;
1404;SDS011;697;51.114;6.542;2023-01-20T14:48:56;7.90;;;6.03;;
1404;SDS011;697;51.114;6.542;2023-01-20T14:51:24;9.47;;;7.37;;
1404;SDS011;697;51.114;6.542;2023-01-20T14:56:55;16.27;;;9.20;;
1404;SDS011;697;51.114;6.542;2023-01-20T14:59:22;12.37;;;8.93;;
1404;SDS011;697;51.114;6.542;2023-01-20T15:01:51;9.37;;;8.37;;
1404;SDS011;697;51.114;6.542;2023-01-20T15:04:19;10.40;;;8.67;;
1404;SDS011;697;51.114;6.542;2023-01-20T15:06:50;17.27;;;10.43;;
1404;SDS011;697;51.114;6.542;2023-01-20T15:09:25;17.90;;;10.70;;
1404;SDS011;697;51.114;6.542;2023-01-20T15:15:06;16.57;;;11.50;;
1404;SDS011;697;51.114;6.542;2023-01-20T15:20:49;17.03;;;12.67;;
1404;SDS011;697;51.114;6.542;2023-01-20T15:23:21;13.87;;;10.33;;
1404;SDS011;697;51.114;6.542;2023-01-20T15:26:05;15.70;;;11.40;;
1404;SDS011;697;51.114;6.542;2023-01-20T15:28:35;15.80;;;11.50;;
1404;SDS011;697;51.114;6.542;2023-01-20T15:31:07;15.77;;;11.50;;
1404;SDS011;697;51.114;6.542;2023-01-20T15:33:37;16.83;;;12.20;;
1404;SDS011;697;51.114;6.542;2023-01-20T15:36:12;15.53;;;11.40;;
1404;SDS011;697;51.114;6.542;2023-01-20T15:38:45;16.93;;;13.33;;
1404;SDS011;697;51.114;6.542;2023-01-20T15:41:13;15.73;;;11.50;;
1404;SDS011;697;51.114;6.542;2023-01-20T15:43:40;16.70;;;11.63;;
1404;SDS011;697;51.114;6.542;2023-01-20T15:46:09;15.37;;;11.33;;
1404;SDS011;697;51.114;6.542;2023-01-20T15:48:36;18.83;;;11.63;;
1404;SDS011;697;51.114;6.542;2023-01-20T15:51:03;14.53;;;12.97;;
1404;SDS011;697;51.114;6.542;2023-01-20T15:53:31;14.10;;;10.50;;
1404;SDS011;697;51.114;6.542;2023-01-20T15:55:58;11.60;;;9.37;;
1404;SDS011;697;51.114;6.542;2023-01-20T15:58:27;14.37;;;10.00;;